Elizabethport, New Jersey
Current Conditions -  °F | °C
As of 12:51 PM on Friday 31 Oct 2014 (Local Time) from KEWR Reporting Station
Overcast Overcast  
Wind Chill: 52°   Ceiling: 5000
Heat Index: 52°   Visibility: 10mi
Dew Point: 37°   Wind: 8mph
Humidity: 57%   Direction: 10°N
Pressure: 29.96"   Gusts: NA
Location:  40.6522°N, 74.1905°W
Report Text: KEWR 311651Z 01007KT 10SM BKN050 OVC250 11/03 A2996 RMK AO2 SLP143 T01110028
Loading
Personal Weather Stations






























Interactive Weather Map
Tropical Storm Tracking
New forecast layout! Learn more

10-Day Weather Forecast

Advertisements
Track Severe Weather on mobile